Time;durP1;ratioP1;P1;durP2;ratioP2;P2;SDS_P1;SDS_P2;PMS_P1;PMS_P2;Temp;Humidity;BMP_temperature;BMP_pressure;BME280_temperature;BME280_humidity;BME280_pressure;Samples;Min_cycle;Max_cycle;Signal;HPM_P1;HPM_P2
2023/10/17 00:00:34;;;;;;;8.82;6.22;;;;;;;20.34;nan;98935.34;5074870;28;20044;-67
2023/10/17 00:03:04;;;;;;;8.55;6.68;;;;;;;20.37;nan;98932.94;5077513;28;20565;-67
2023/10/17 00:05:33;;;;;;;7.97;6.45;;;;;;;20.11;nan;98942.53;5070385;28;20495;-68
2023/10/17 00:08:05;;;;;;;9.13;7.00;;;;;;;20.32;nan;98942.81;5082715;28;20079;-68
2023/10/17 00:10:44;;;;;;;10.25;6.47;;;;;;;20.35;nan;98950.41;5078294;28;20055;-67
2023/10/17 00:13:38;;;;;;;8.25;6.43;;;;;;;20.26;nan;98963.44;5083488;28;20056;-67
2023/10/17 00:16:11;;;;;;;8.82;6.88;;;;;;;20.32;nan;98977.78;5077460;28;20446;-67
2023/10/17 00:18:42;;;;;;;12.57;7.15;;;;;;;20.38;nan;98985.69;5083553;28;20047;-67
2023/10/17 00:21:16;;;;;;;10.25;7.35;;;;;;;20.36;nan;98990.50;5084910;28;20036;-67
2023/10/17 00:23:47;;;;;;;9.57;8.38;;;;;;;20.41;nan;98987.88;5081672;28;20041;-68
2023/10/17 00:26:18;;;;;;;12.60;10.10;;;;;;;20.41;nan;98987.88;5080185;28;20074;-67
2023/10/17 00:28:49;;;;;;;14.52;11.70;;;;;;;20.40;nan;98978.19;5077705;28;20048;-67
2023/10/17 00:31:23;;;;;;;13.75;11.75;;;;;;;20.37;nan;98980.56;5054256;28;20219;-66
2023/10/17 00:33:58;;;;;;;16.42;13.27;;;;;;;20.30;nan;98988.81;5058185;28;20130;-67
2023/10/17 00:36:28;;;;;;;15.35;13.45;;;;;;;20.29;nan;99000.59;5054267;28;20072;-67
2023/10/17 00:39:08;;;;;;;16.83;14.18;;;;;;;20.31;nan;99006.59;5048740;28;20579;-67
2023/10/17 00:42:27;;;;;;;17.02;14.00;;;;;;;20.32;nan;99020.84;5046290;28;20048;-66
2023/10/17 00:44:30;;;;;;;18.08;14.70;;;;;;;20.31;nan;99016.53;5035063;28;20625;-66
2023/10/17 00:47:01;;;;;;;16.58;14.73;;;;;;;20.29;nan;99022.13;5055264;28;20044;-67
2023/10/17 00:49:44;;;;;;;18.00;15.13;;;;;;;20.27;nan;99023.44;5050385;28;20136;-67
2023/10/17 00:52:20;;;;;;;17.83;15.45;;;;;;;20.24;nan;99024.75;5057199;28;21489;-66
2023/10/17 00:54:51;;;;;;;19.58;15.65;;;;;;;20.21;nan;99027.94;5054660;28;20133;-66
2023/10/17 00:57:26;;;;;;;20.40;16.15;;;;;;;20.16;nan;99038.63;5068931;28;20060;-69
2023/10/17 01:00:08;;;;;;;19.73;15.57;;;;;;;20.19;nan;99038.09;5063117;28;20079;-67
2023/10/17 01:02:47;;;;;;;19.90;15.85;;;;;;;20.14;nan;99036.16;5050724;28;20055;-64
2023/10/17 01:05:16;;;;;;;19.08;16.20;;;;;;;20.14;nan;99040.72;5050839;28;20399;-65
2023/10/17 01:07:46;;;;;;;17.40;15.02;;;;;;;20.14;nan;99040.72;5076815;28;20067;-65
2023/10/17 01:10:16;;;;;;;15.07;13.02;;;;;;;20.11;nan;99057.34;5046064;28;20480;-65
2023/10/17 01:13:04;;;;;;;15.73;13.32;;;;;;;20.08;nan;99085.56;5049235;28;20049;-65
2023/10/17 01:15:35;;;;;;;15.13;12.30;;;;;;;20.05;nan;99099.47;5048262;28;20102;-65
2023/10/17 01:18:05;;;;;;;14.05;12.35;;;;;;;20.03;nan;99108.84;5065720;28;20109;-65
2023/10/17 01:20:36;;;;;;;15.00;12.20;;;;;;;20.04;nan;99121.25;5034407;28;20044;-64
2023/10/17 01:23:07;;;;;;;14.75;12.00;;;;;;;20.04;nan;99130.13;5065380;28;20391;-65
2023/10/17 01:25:41;;;;;;;12.70;11.00;;;;;;;20.01;nan;99146.72;5066029;28;20090;-65
2023/10/17 01:28:10;;;;;;;14.15;11.50;;;;;;;20.02;nan;99167.19;5066494;28;20048;-66
2023/10/17 01:30:41;;;;;;;15.48;11.20;;;;;;;20.04;nan;99173.16;5070640;28;20052;-67
2023/10/17 01:33:12;;;;;;;14.90;10.73;;;;;;;20.03;nan;99184.97;5053005;28;20052;-67
2023/10/17 01:35:45;;;;;;;16.13;11.70;;;;;;;19.96;nan;99164.69;5073009;28;20056;-66
2023/10/17 01:38:17;;;;;;;18.33;12.05;;;;;;;19.98;nan;99157.16;5060588;28;20368;-66
2023/10/17 01:40:46;;;;;;;12.73;9.70;;;;;;;19.85;nan;99158.28;5046960;28;20141;-66
2023/10/17 01:43:15;;;;;;;9.85;6.28;;;;;;;19.69;nan;99149.09;5042851;28;20383;-66
2023/10/17 01:45:48;;;;;;;9.02;4.50;;;;;;;19.67;nan;99150.41;5056044;28;20048;-67
2023/10/17 01:48:21;;;;;;;7.40;3.63;;;;;;;19.52;nan;99150.94;5066113;28;20040;-66
2023/10/17 01:50:51;;;;;;;6.35;3.08;;;;;;;19.44;nan;99148.63;5059873;28;20461;-66
2023/10/17 01:53:21;;;;;;;4.97;2.92;;;;;;;19.48;nan;99154.34;5070275;28;20127;-66
2023/10/17 01:56:06;;;;;;;3.90;2.88;;;;;;;19.49;nan;99169.41;5043838;28;20044;-66
2023/10/17 01:58:38;;;;;;;2.92;2.58;;;;;;;19.48;nan;99182.03;5048245;28;20048;-66
2023/10/17 02:01:13;;;;;;;6.72;3.50;;;;;;;19.42;nan;99168.72;5050961;28;20056;-66
2023/10/17 02:03:46;;;;;;;5.20;2.78;;;;;;;19.38;nan;99168.38;5058854;28;20051;-66
2023/10/17 02:06:16;;;;;;;4.15;2.78;;;;;;;19.41;nan;99159.00;5062130;28;20164;-65
2023/10/17 02:08:46;;;;;;;6.00;2.70;;;;;;;19.42;nan;99163.34;5037981;28;20477;-65
2023/10/17 02:11:24;;;;;;;4.03;2.65;;;;;;;19.42;nan;99161.47;5052526;28;20040;-66
2023/10/17 02:13:59;;;;;;;3.83;2.05;;;;;;;19.40;nan;99149.31;5047847;28;20048;-66
2023/10/17 02:16:32;;;;;;;3.83;2.00;;;;;;;19.36;nan;99154.34;5062171;28;20040;-66
2023/10/17 02:19:07;;;;;;;3.95;1.98;;;;;;;19.35;nan;99160.78;5064792;28;20044;-66
2023/10/17 02:21:39;;;;;;;2.88;1.90;;;;;;;19.37;nan;99165.91;5030157;28;20714;-67
2023/10/17 02:24:10;;;;;;;7.97;3.40;;;;;;;19.37;nan;99171.28;5046786;28;20063;-67
2023/10/17 02:26:43;;;;;;;5.35;2.53;;;;;;;19.09;nan;99172.03;5051352;28;20065;-65
2023/10/17 02:29:14;;;;;;;3.67;2.63;;;;;;;19.16;nan;99151.25;5050337;28;20056;-66
2023/10/17 02:31:45;;;;;;;5.55;2.90;;;;;;;19.15;nan;99133.50;5046019;28;20049;-67
2023/10/17 02:34:15;;;;;;;5.25;2.50;;;;;;;19.19;nan;99137.34;5063428;28;20052;-67
2023/10/17 02:36:45;;;;;;;3.90;2.45;;;;;;;19.21;nan;99159.41;5061925;28;20155;-66
2023/10/17 02:39:14;;;;;;;5.55;2.47;;;;;;;19.24;nan;99164.31;5060728;28;20048;-66
2023/10/17 02:41:46;;;;;;;4.70;2.88;;;;;;;19.16;nan;99132.47;5064116;28;20624;-66
2023/10/17 02:44:19;;;;;;;5.63;3.10;;;;;;;19.16;nan;99073.38;5064657;28;20094;-66
2023/10/17 02:46:48;;;;;;;3.72;2.60;;;;;;;19.18;nan;99068.56;5050493;28;20052;-66
2023/10/17 02:49:17;;;;;;;4.15;2.55;;;;;;;19.19;nan;99056.78;5043172;28;20047;-66
2023/10/17 02:51:47;;;;;;;3.58;2.20;;;;;;;19.22;nan;99043.69;5049318;28;20167;-66
2023/10/17 02:54:18;;;;;;;4.05;2.70;;;;;;;19.23;nan;99044.50;5064281;28;20135;-66
2023/10/17 02:56:51;;;;;;;3.90;2.90;;;;;;;19.26;nan;99047.53;5050177;28;20049;-66
2023/10/17 02:59:21;;;;;;;4.15;2.88;;;;;;;19.31;nan;99041.44;5032923;28;20101;-66
2023/10/17 03:01:55;;;;;;;4.18;3.17;;;;;;;19.26;nan;99054.75;5042048;28;20119;-66
2023/10/17 03:04:24;;;;;;;;;;;;;;;19.26;nan;99068.19;5046252;28;20135;-66
2023/10/17 03:06:56;;;;;;;8.25;3.38;;;;;;;19.32;nan;99083.38;5048389;28;20007;-66
2023/10/17 03:17:10;;;;;;;7.35;4.40;;;;;;;18.95;nan;99128.50;5042462;28;20072;-66
2023/10/17 03:19:39;;;;;;;6.00;4.57;;;;;;;19.04;nan;99145.06;5051756;28;20063;-66
2023/10/17 03:24:48;;;;;;;13.00;9.98;;;;;;;18.97;nan;99173.91;5060388;28;20045;-66
2023/10/17 03:27:35;;;;;;;18.95;13.30;;;;;;;18.95;nan;99167.97;5045422;28;20233;-66
2023/10/17 03:30:14;;;;;;;19.92;14.68;;;;;;;19.14;nan;99193.63;5067012;28;20059;-66
2023/10/17 03:33:03;;;;;;;25.13;17.08;;;;;;;19.20;nan;99184.63;5066646;28;20115;-66
2023/10/17 03:35:36;;;;;;;26.42;20.77;;;;;;;18.79;nan;99173.00;5060450;28;20147;-66
2023/10/17 03:38:08;;;;;;;29.25;20.85;;;;;;;18.96;nan;99167.72;5050016;28;20126;-66
2023/10/17 03:40:41;;;;;;;26.10;18.92;;;;;;;18.71;nan;99151.88;5071862;28;20052;-66
2023/10/17 03:43:15;;;;;;;20.33;16.17;;;;;;;19.02;nan;99139.13;5076578;28;20036;-65
2023/10/17 03:45:47;;;;;;;17.45;14.63;;;;;;;19.19;nan;99156.97;5076448;28;20055;-66
2023/10/17 03:48:20;;;;;;;16.70;13.65;;;;;;;19.23;nan;99166.19;5083603;28;20101;-64
2023/10/17 03:53:46;;;;;;;12.77;10.35;;;;;;;19.58;nan;99178.72;5081735;28;20138;-66
2023/10/17 03:56:25;;;;;;;11.77;9.80;;;;;;;19.58;nan;99176.84;5079648;28;20112;-66
2023/10/17 03:59:16;;;;;;;14.05;10.48;;;;;;;19.71;nan;99183.81;5078686;28;20166;-66
2023/10/17 04:01:48;;;;;;;13.35;10.60;;;;;;;20.24;nan;99180.75;5079857;28;20555;-66
2023/10/17 04:04:30;;;;;;;14.23;10.82;;;;;;;20.25;nan;99177.00;5074994;28;20048;-66
2023/10/17 04:07:06;;;;;;;12.77;10.63;;;;;;;20.20;nan;99184.97;5079767;28;20144;-66
2023/10/17 04:10:01;;;;;;;12.38;8.25;;;;;;;20.33;nan;99190.09;5080397;28;20052;-66
2023/10/17 04:12:48;;;;;;;13.10;8.48;;;;;;;20.51;nan;99197.09;5079749;28;20117;-66
2023/10/17 04:15:18;;;;;;;10.32;6.90;;;;;;;20.25;nan;99187.78;5078162;28;20128;-66
2023/10/17 04:17:48;;;;;;;8.25;6.60;;;;;;;20.45;nan;99198.88;5086271;28;20051;-66
2023/10/17 04:20:18;;;;;;;8.88;6.07;;;;;;;20.47;nan;99202.16;5086305;28;20435;-66
2023/10/17 04:22:47;;;;;;;6.22;5.55;;;;;;;20.11;nan;99189.13;5087452;28;20661;-66
2023/10/17 04:25:20;;;;;;;6.95;5.80;;;;;;;20.22;nan;99182.88;5086027;28;20127;-66
2023/10/17 04:27:59;;;;;;;5.95;5.35;;;;;;;20.28;nan;99186.44;5087047;28;20492;-65
2023/10/17 04:30:29;;;;;;;7.88;5.68;;;;;;;20.42;nan;99191.31;5084555;28;20491;-66
2023/10/17 04:33:12;;;;;;;21.67;7.00;;;;;;;20.37;nan;99187.72;5084992;28;20044;-66
2023/10/17 04:35:48;;;;;;;8.15;5.90;;;;;;;20.60;nan;99188.38;5083410;28;20135;-67
2023/10/17 04:38:27;;;;;;;6.78;5.72;;;;;;;20.78;nan;99187.31;5084580;28;20078;-67
2023/10/17 04:41:10;;;;;;;6.93;5.57;;;;;;;20.87;nan;99187.72;5082996;28;20072;-68
2023/10/17 04:43:56;;;;;;;6.72;5.18;;;;;;;20.99;nan;99191.09;5081894;28;20052;-67
2023/10/17 04:46:28;;;;;;;9.60;6.57;;;;;;;20.99;nan;99180.34;5087630;28;20055;-67
2023/10/17 04:49:06;;;;;;;8.82;7.22;;;;;;;20.98;nan;99187.59;5088301;28;20059;-67
2023/10/17 04:51:42;;;;;;;9.18;6.40;;;;;;;21.00;nan;99198.13;5085056;28;20048;-67
2023/10/17 04:54:38;;;;;;;8.00;6.45;;;;;;;20.83;nan;99200.03;5071916;28;20065;-67
2023/10/17 04:57:09;;;;;;;8.25;6.80;;;;;;;20.88;nan;99192.84;5068605;28;20058;-67
2023/10/17 04:59:51;;;;;;;8.15;6.25;;;;;;;20.99;nan;99199.19;5058172;28;20052;-67
2023/10/17 06:17:40;;;;;;;19.67;8.13;;;;;;;22.67;nan;99179.22;5063714;28;20052;-67
2023/10/17 06:20:12;;;;;;;;;;;;;;;22.98;nan;99180.28;5062072;28;20052;-65
2023/10/17 06:28:25;;;;;;;10.30;5.93;;;;;;;23.67;nan;99190.91;5063669;28;20106;-66
2023/10/17 06:33:42;;;;;;;11.75;7.00;;;;;;;23.84;nan;99187.97;5059330;28;20064;-66
2023/10/17 06:36:17;;;;;;;9.50;5.90;;;;;;;23.98;nan;99186.41;5038078;28;20438;-66
2023/10/17 06:38:50;;;;;;;13.65;6.68;;;;;;;24.08;nan;99189.09;5052032;28;20045;-66
2023/10/17 06:41:29;;;;;;;8.45;6.03;;;;;;;24.19;nan;99188.06;5060755;28;20152;-66
2023/10/17 06:44:05;;;;;;;7.00;5.32;;;;;;;24.29;nan;99187.28;5064009;28;20731;-66
2023/10/17 06:46:55;;;;;;;7.10;5.25;;;;;;;24.17;nan;99185.63;5054996;28;20055;-67
2023/10/17 06:55:07;;;;;;;6.78;5.18;;;;;;;24.32;nan;99182.13;5043661;28;20041;-68
2023/10/17 06:57:36;;;;;;;8.27;5.25;;;;;;;24.32;nan;99178.59;5019631;28;20380;-68
2023/10/17 07:03:03;;;;;;;9.00;5.78;;;;;;;24.35;nan;99178.06;5015151;28;20111;-68
2023/10/17 07:05:36;;;;;;;10.98;4.75;;;;;;;24.28;nan;99172.94;5022348;28;20055;-66
2023/10/17 07:08:13;;;;;;;7.22;4.05;;;;;;;24.35;nan;99168.03;5035580;28;20059;-66
2023/10/17 07:16:42;;;;;;;6.40;4.28;;;;;;;24.42;nan;99165.91;5057549;28;20134;-66
2023/10/17 07:22:05;;;;;;;8.80;4.72;;;;;;;24.41;nan;99168.88;5053849;28;19935;-66
2023/10/17 07:24:36;;;;;;;6.90;4.30;;;;;;;24.33;nan;99162.09;5057211;28;20114;-66
2023/10/17 07:27:26;;;;;;;5.78;4.00;;;;;;;24.23;nan;99162.09;5055827;28;20060;-66
2023/10/17 07:29:58;;;;;;;10.00;5.68;;;;;;;24.26;nan;99155.31;5072988;28;20143;-66
2023/10/17 07:32:44;;;;;;;8.07;4.68;;;;;;;24.25;nan;99154.53;5078745;28;20146;-66
2023/10/17 07:35:16;;;;;;;9.57;5.05;;;;;;;24.27;nan;99146.13;5074554;28;20050;-66
2023/10/17 07:37:53;;;;;;;11.02;5.68;;;;;;;24.36;nan;99139.06;5073804;28;20048;-66
2023/10/17 07:41:32;;;;;;;8.10;4.28;;;;;;;24.42;nan;99138.00;5046659;28;20909;-66
2023/10/17 07:43:31;;;;;;;6.57;3.67;;;;;;;24.22;nan;99129.88;5062004;28;20147;-66
2023/10/17 07:46:06;;;;;;;5.80;4.22;;;;;;;24.29;nan;99130.44;5087035;28;20056;-67
2023/10/17 07:48:36;;;;;;;12.07;5.07;;;;;;;24.35;nan;99127.44;5066247;28;20043;-64
2023/10/17 07:51:06;;;;;;;12.88;5.15;;;;;;;24.38;nan;99128.81;5079780;28;20071;-65
2023/10/17 07:53:43;;;;;;;10.18;4.60;;;;;;;23.94;nan;99120.38;5076957;28;20147;-65
2023/10/17 07:56:20;;;;;;;13.43;5.25;;;;;;;24.13;nan;99124.16;5072284;28;20037;-64
2023/10/17 07:58:57;;;;;;;6.10;4.13;;;;;;;24.09;nan;99117.66;5082098;28;20055;-65
2023/10/17 08:01:42;;;;;;;8.63;3.95;;;;;;;24.10;nan;99113.88;5070437;28;20105;-64
2023/10/17 08:04:18;;;;;;;5.53;4.30;;;;;;;24.07;nan;99117.94;5076483;28;20557;-65
2023/10/17 08:06:50;;;;;;;5.15;4.38;;;;;;;23.94;nan;99113.03;5063614;28;20059;-64
2023/10/17 08:11:55;;;;;;;9.20;4.78;;;;;;;23.93;nan;99110.63;5074551;28;20059;-64
2023/10/17 08:14:40;;;;;;;11.95;5.15;;;;;;;24.04;nan;99117.66;5083205;28;20052;-64
2023/10/17 08:17:10;;;;;;;9.35;5.30;;;;;;;24.05;nan;99117.38;5074358;28;21201;-65
2023/10/17 08:22:55;;;;;;;15.43;12.10;;;;;;;24.09;nan;99104.13;4980602;28;20057;-64
2023/10/17 08:25:45;;;;;;;19.05;13.73;;;;;;;24.02;nan;99100.88;5072172;28;20041;-65
2023/10/17 08:28:31;;;;;;;16.73;13.43;;;;;;;23.82;nan;99107.06;5083110;28;20097;-65
2023/10/17 08:36:49;;;;;;;19.27;15.15;;;;;;;23.76;nan;99093.81;5103371;28;20044;-64
2023/10/17 08:42:11;;;;;;;24.60;18.88;;;;;;;23.80;nan;99098.44;5080776;28;20131;-65
2023/10/17 08:44:46;;;;;;;23.15;19.02;;;;;;;23.82;nan;99085.44;5077464;28;20051;-65
2023/10/17 08:47:18;;;;;;;20.45;17.30;;;;;;;23.85;nan;99093.03;5073645;28;20192;-64
2023/10/17 08:49:48;;;;;;;18.13;15.88;;;;;;;23.85;nan;99090.31;5074698;28;20059;-64
2023/10/17 08:52:28;;;;;;;20.52;16.33;;;;;;;23.77;nan;99081.91;5081294;28;20430;-64
2023/10/17 08:54:57;;;;;;;17.05;15.27;;;;;;;23.77;nan;99093.53;5087969;28;20044;-65
2023/10/17 08:57:26;;;;;;;18.38;14.45;;;;;;;23.80;nan;99092.22;5093368;28;20047;-64
2023/10/17 09:00:14;;;;;;;19.42;14.48;;;;;;;23.72;nan;99096.25;5081217;28;20120;-65
2023/10/17 09:02:55;;;;;;;17.23;14.18;;;;;;;23.63;nan;99098.66;5077693;28;20082;-64
2023/10/17 09:05:29;;;;;;;17.05;14.63;;;;;;;23.59;nan;99094.84;5085704;28;20055;-64
2023/10/17 09:08:02;;;;;;;15.32;13.70;;;;;;;23.62;nan;99098.94;5090607;28;20051;-65
2023/10/17 09:10:37;;;;;;;14.82;13.23;;;;;;;23.67;nan;99102.47;5100753;28;20434;-64
2023/10/17 09:15:56;;;;;;;14.45;12.50;;;;;;;23.63;nan;99105.97;5079190;28;20451;-64
2023/10/17 09:18:29;;;;;;;15.23;13.48;;;;;;;23.61;nan;99102.72;5064647;28;20768;-65
2023/10/17 09:21:03;;;;;;;20.90;15.50;;;;;;;23.67;nan;99099.78;5077017;28;20067;-64
2023/10/17 09:23:32;;;;;;;16.58;14.43;;;;;;;23.62;nan;99097.06;5074149;28;20068;-65
2023/10/17 09:26:11;;;;;;;15.98;13.73;;;;;;;23.63;nan;99097.88;5068388;28;20048;-64
2023/10/17 09:28:41;;;;;;;19.38;13.48;;;;;;;23.69;nan;99103.00;5086626;28;20113;-64
2023/10/17 09:31:12;;;;;;;16.25;12.60;;;;;;;23.72;nan;99090.84;5071821;28;20116;-64
2023/10/17 09:33:48;;;;;;;17.52;12.65;;;;;;;23.84;nan;99094.09;5061339;28;20132;-65
2023/10/17 09:36:17;;;;;;;13.70;12.25;;;;;;;23.96;nan;99097.34;5057872;28;20080;-63
2023/10/17 09:38:47;;;;;;;11.88;10.68;;;;;;;23.99;nan;99096.81;5049173;28;20056;-64
2023/10/17 09:41:18;;;;;;;12.57;11.10;;;;;;;24.04;nan;99096.81;5048050;28;20147;-64
2023/10/17 09:43:51;;;;;;;14.57;11.45;;;;;;;24.10;nan;99094.94;5047436;28;20151;-65
2023/10/17 09:46:26;;;;;;;12.70;10.65;;;;;;;24.14;nan;99104.13;5057408;28;20053;-64
2023/10/17 09:49:00;;;;;;;11.77;10.23;;;;;;;24.04;nan;99099.53;5048582;28;20045;-64
2023/10/17 09:51:35;;;;;;;13.20;8.80;;;;;;;23.99;nan;99102.22;5055642;28;20056;-64
2023/10/17 09:54:08;;;;;;;10.00;8.88;;;;;;;23.93;nan;99111.44;5059709;28;20135;-64
2023/10/17 09:56:42;;;;;;;11.30;9.90;;;;;;;23.91;nan;99105.47;5061060;28;20060;-65
2023/10/17 09:59:24;;;;;;;12.60;9.95;;;;;;;23.89;nan;99109.53;5063434;28;20131;-65
2023/10/17 10:01:56;;;;;;;9.77;8.38;;;;;;;23.84;nan;99104.13;5055814;28;20190;-65
2023/10/17 10:04:28;;;;;;;8.90;8.00;;;;;;;23.78;nan;99108.69;5043647;28;20045;-64
2023/10/17 10:07:33;;;;;;;12.05;7.82;;;;;;;23.75;nan;99105.72;5060399;28;20980;-64
2023/10/17 10:10:06;;;;;;;10.65;7.60;;;;;;;23.69;nan;99111.13;4956147;28;20058;-64
2023/10/17 10:12:59;;;;;;;9.82;8.30;;;;;;;23.67;nan;99109.78;5040271;28;20144;-64
2023/10/17 10:15:54;;;;;;;9.23;7.68;;;;;;;23.64;nan;99108.41;5050546;28;20118;-64
2023/10/17 10:18:36;;;;;;;9.73;7.53;;;;;;;23.68;nan;99111.38;5063294;28;20531;-64
2023/10/17 10:21:12;;;;;;;8.10;6.93;;;;;;;23.67;nan;99110.59;5064390;28;20130;-67
2023/10/17 10:23:45;;;;;;;8.23;6.63;;;;;;;23.65;nan;99111.91;5047767;28;20059;-68
2023/10/17 10:26:22;;;;;;;9.68;7.30;;;;;;;23.65;nan;99114.63;5050285;28;20426;-67
2023/10/17 10:28:51;;;;;;;10.43;8.75;;;;;;;23.68;nan;99109.47;5052987;28;20056;-67
2023/10/17 10:31:27;;;;;;;12.00;8.82;;;;;;;23.71;nan;99114.38;5065524;28;20236;-68
2023/10/17 10:34:00;;;;;;;12.10;8.30;;;;;;;23.79;nan;99104.91;5053709;28;20044;-66
2023/10/17 10:36:33;;;;;;;;;;;;;;;23.84;nan;99110.34;5057707;28;20048;-67
2023/10/17 10:39:13;;;;;;;10.63;9.50;;;;;;;23.86;nan;99107.34;5050670;28;20241;-66
2023/10/17 10:42:03;;;;;;;15.48;9.10;;;;;;;23.93;nan;99111.44;5054124;28;20053;-65
2023/10/17 10:44:41;;;;;;;13.38;9.23;;;;;;;23.91;nan;99110.88;5038945;28;20132;-68
2023/10/17 10:47:13;;;;;;;12.98;9.00;;;;;;;23.93;nan;99108.72;5047291;28;20048;-66
2023/10/17 10:49:43;;;;;;;13.32;8.98;;;;;;;23.91;nan;99110.06;5054680;28;20177;-67
2023/10/17 10:52:12;;;;;;;10.90;8.18;;;;;;;23.71;nan;99108.16;5049734;28;20519;-68
2023/10/17 10:54:59;;;;;;;9.00;7.75;;;;;;;23.75;nan;99113.84;5056624;28;20480;-68
2023/10/17 10:57:29;;;;;;;12.23;8.55;;;;;;;23.51;nan;99114.31;5060889;28;20436;-66
2023/10/17 11:00:07;;;;;;;14.33;8.00;;;;;;;23.45;nan;99117.28;5057790;28;20052;-67
2023/10/17 11:02:37;;;;;;;16.55;8.45;;;;;;;23.49;nan;99121.09;5035154;28;20291;-67
2023/10/17 11:05:10;;;;;;;13.77;9.95;;;;;;;23.17;nan;99123.91;5059330;28;20039;-67
2023/10/17 11:07:41;;;;;;;12.70;9.65;;;;;;;23.33;nan;99119.34;5072420;28;20051;-65
2023/10/17 11:10:18;;;;;;;13.27;10.13;;;;;;;23.07;nan;99116.56;5064700;28;20053;-65
2023/10/17 11:12:54;;;;;;;13.10;10.00;;;;;;;22.95;nan;99113.25;5060004;28;20052;-66
2023/10/17 11:15:27;;;;;;;13.95;10.15;;;;;;;22.95;nan;99110.56;5060903;28;20051;-66
2023/10/17 11:18:01;;;;;;;11.80;8.87;;;;;;;23.09;nan;99117.13;5062894;28;20166;-67
2023/10/17 11:20:31;;;;;;;12.85;10.07;;;;;;;23.19;nan;99116.34;5063357;28;20359;-67
2023/10/17 11:23:02;;;;;;;13.77;9.35;;;;;;;23.05;nan;99121.44;5042636;28;20071;-67
2023/10/17 11:25:34;;;;;;;13.57;9.13;;;;;;;23.10;nan;99128.75;5058988;28;20059;-67
2023/10/17 11:28:07;;;;;;;9.07;7.60;;;;;;;22.87;nan;99124.56;5061072;28;20134;-66
2023/10/17 11:30:42;;;;;;;13.27;7.65;;;;;;;22.99;nan;99125.16;5068056;28;20044;-66
2023/10/17 11:33:28;;;;;;;11.18;8.43;;;;;;;23.04;nan;99125.19;5069153;28;20136;-66
2023/10/17 11:36:03;;;;;;;12.30;8.40;;;;;;;22.94;nan;99124.31;5061250;28;20068;-67
2023/10/17 11:38:40;;;;;;;11.77;8.32;;;;;;;23.05;nan;99126.84;5065830;28;20051;-67
2023/10/17 11:41:17;;;;;;;12.93;8.68;;;;;;;23.12;nan;99130.09;5061303;28;20060;-67
2023/10/17 11:43:56;;;;;;;12.98;8.63;;;;;;;23.09;nan;99127.94;5063579;28;20384;-66
2023/10/17 11:46:32;;;;;;;13.48;9.65;;;;;;;23.09;nan;99119.00;5066734;28;20147;-66
2023/10/17 11:49:20;;;;;;;13.48;9.38;;;;;;;22.99;nan;99135.16;5070715;28;20051;-66
2023/10/17 11:52:15;;;;;;;10.07;8.88;;;;;;;23.08;nan;99131.69;5060435;28;20123;-66
2023/10/17 11:55:03;;;;;;;12.63;9.48;;;;;;;23.05;nan;99126.00;5061693;28;20391;-67
2023/10/17 11:57:33;;;;;;;13.30;8.27;;;;;;;23.07;nan;99129.25;5058438;28;20077;-66
2023/10/17 12:02:49;;;;;;;13.38;8.23;;;;;;;23.14;nan;99133.38;5060010;28;20044;-66
2023/10/17 12:05:19;;;;;;;12.30;8.38;;;;;;;23.10;nan;99129.53;5061203;28;20125;-66
2023/10/17 12:07:57;;;;;;;12.18;7.40;;;;;;;23.04;nan;99121.69;5034165;28;20048;-66
2023/10/17 12:10:28;;;;;;;11.88;7.65;;;;;;;23.05;nan;99124.13;5054843;28;20045;-67
2023/10/17 12:13:06;;;;;;;9.60;6.90;;;;;;;23.01;nan;99131.13;5054089;28;20041;-67
2023/10/17 12:15:35;;;;;;;14.43;7.68;;;;;;;22.99;nan;99129.75;5064716;28;20059;-68
2023/10/17 12:18:06;;;;;;;12.27;7.70;;;;;;;23.01;nan;99133.03;5065807;28;20045;-69
2023/10/17 12:20:40;;;;;;;9.13;7.03;;;;;;;22.98;nan;99136.22;5068732;28;20494;-64
2023/10/17 12:23:10;;;;;;;10.77;7.18;;;;;;;22.96;nan;99133.00;5069294;28;20567;-66
2023/10/17 12:25:43;;;;;;;14.73;7.20;;;;;;;22.92;nan;99135.41;5061608;28;20056;-68
2023/10/17 12:28:13;;;;;;;13.88;7.55;;;;;;;22.97;nan;99129.22;5047295;28;20044;-67
2023/10/17 12:30:44;;;;;;;9.15;7.10;;;;;;;22.93;nan;99131.59;5054544;28;20052;-70
2023/10/17 12:33:14;;;;;;;16.25;8.13;;;;;;;22.92;nan;99135.41;5049866;28;20048;-66
2023/10/17 12:35:46;;;;;;;12.60;7.85;;;;;;;22.90;nan;99139.44;5053146;28;20048;-64
2023/10/17 12:38:24;;;;;;;14.07;8.07;;;;;;;22.91;nan;99139.19;5056213;28;20037;-65
2023/10/17 12:40:53;;;;;;;11.60;7.63;;;;;;;22.87;nan;99129.97;5072682;28;20083;-66
2023/10/17 12:43:23;;;;;;;12.82;7.90;;;;;;;22.87;nan;99131.84;5070820;28;20048;-67
2023/10/17 12:45:52;;;;;;;9.73;7.50;;;;;;;22.23;nan;99134.59;5054567;28;20124;-65
2023/10/17 12:48:21;;;;;;;12.00;8.40;;;;;;;21.70;nan;99132.72;5064502;28;20066;-64
2023/10/17 12:50:51;;;;;;;11.73;8.18;;;;;;;21.49;nan;99134.41;5067711;28;20135;-64
2023/10/17 12:53:21;;;;;;;12.57;8.52;;;;;;;21.29;nan;99132.28;5062901;28;20056;-65
2023/10/17 12:55:51;;;;;;;11.98;8.60;;;;;;;21.15;nan;99128.34;5061093;28;20055;-63
2023/10/17 12:58:22;;;;;;;13.95;8.15;;;;;;;21.00;nan;99134.31;5049593;28;20075;-64
2023/10/17 13:00:52;;;;;;;11.30;8.48;;;;;;;20.93;nan;99125.59;5061920;28;20041;-65
2023/10/17 13:03:22;;;;;;;14.77;8.93;;;;;;;20.84;nan;99131.66;5056035;28;20048;-63
2023/10/17 13:05:51;;;;;;;15.73;9.55;;;;;;;20.76;nan;99124.00;4701135;28;10000135;-64
2023/10/17 13:08:21;;;;;;;13.00;9.02;;;;;;;20.69;nan;99128.75;5054401;28;20053;-62
2023/10/17 13:10:57;;;;;;;14.90;9.55;;;;;;;20.63;nan;99131.34;5060951;28;20129;-64
2023/10/17 13:13:29;;;;;;;13.52;9.50;;;;;;;20.60;nan;99126.47;5062891;28;20048;-65
2023/10/17 13:15:59;;;;;;;12.60;9.48;;;;;;;20.66;nan;99129.25;5054371;28;20161;-63
2023/10/17 13:18:29;;;;;;;13.57;9.73;;;;;;;20.50;nan;99131.69;5055824;28;20044;-65
2023/10/17 13:21:06;;;;;;;13.77;10.23;;;;;;;20.55;nan;99131.78;5059958;28;20072;-64
2023/10/17 13:23:39;;;;;;;14.85;10.02;;;;;;;20.48;nan;99138.41;5067145;28;20430;-61
2023/10/17 13:26:12;;;;;;;17.45;10.30;;;;;;;20.56;nan;99133.41;5046489;28;20053;-65
2023/10/17 13:28:45;;;;;;;15.02;10.40;;;;;;;20.41;nan;99138.56;5059085;28;20370;-63
2023/10/17 13:31:16;;;;;;;15.98;11.32;;;;;;;20.39;nan;99142.56;5060311;28;20054;-64
2023/10/17 13:33:46;;;;;;;16.17;10.32;;;;;;;20.36;nan;99134.97;5060102;28;20055;-63
2023/10/17 13:36:20;;;;;;;24.52;10.55;;;;;;;20.48;nan;99143.78;5061566;28;20536;-64
2023/10/17 13:38:52;;;;;;;15.65;10.15;;;;;;;20.39;nan;99150.63;5063043;28;20127;-64
2023/10/17 13:41:23;;;;;;;12.73;10.07;;;;;;;20.42;nan;99147.44;5066753;28;20056;-63
2023/10/17 13:43:53;;;;;;;14.50;10.00;;;;;;;20.42;nan;99147.44;5045695;28;20067;-63
2023/10/17 13:46:22;;;;;;;13.90;10.55;;;;;;;20.41;nan;99151.19;5060846;28;20060;-62
2023/10/17 13:48:52;;;;;;;14.32;10.35;;;;;;;20.33;nan;99147.03;5062325;28;20695;-63
2023/10/17 13:51:34;;;;;;;17.42;8.98;;;;;;;20.23;nan;99156.78;5063440;28;20531;-63
2023/10/17 13:54:05;;;;;;;12.88;9.93;;;;;;;20.21;nan;99156.22;5066524;28;20052;-64
2023/10/17 13:56:35;;;;;;;16.20;10.02;;;;;;;20.28;nan;99157.69;5065786;28;20095;-64
2023/10/17 13:59:04;;;;;;;13.10;9.40;;;;;;;20.35;nan;99152.19;5064766;28;20062;-63
2023/10/17 14:01:41;;;;;;;13.02;9.32;;;;;;;20.19;nan;99162.66;5065089;28;20148;-63
2023/10/17 14:04:11;;;;;;;15.80;10.38;;;;;;;20.12;nan;99159.31;5066114;28;20067;-62
2023/10/17 14:06:44;;;;;;;14.05;10.57;;;;;;;20.08;nan;99163.56;5068260;28;20053;-64
2023/10/17 14:09:14;;;;;;;14.77;10.13;;;;;;;20.08;nan;99168.94;5069709;28;20051;-62
2023/10/17 14:11:47;;;;;;;12.35;9.88;;;;;;;20.11;nan;99165.75;5070714;28;20141;-62
2023/10/17 14:14:18;;;;;;;13.82;10.10;;;;;;;19.96;nan;99172.75;5068817;28;20144;-62
2023/10/17 14:16:50;;;;;;;16.20;9.87;;;;;;;19.95;nan;99171.09;4707869;28;10000564;-62
2023/10/17 14:27:29;;;;;;;14.07;9.02;;;;;;;19.92;nan;99160.81;5068304;28;20717;-65
2023/10/17 14:30:00;;;;;;;13.88;9.45;;;;;;;19.86;nan;99161.78;5069232;28;20357;-65
2023/10/17 14:32:29;;;;;;;13.15;9.05;;;;;;;19.76;nan;99165.09;5064039;28;20048;-65
2023/10/17 14:34:59;;;;;;;14.07;9.45;;;;;;;19.71;nan;99173.88;5065056;28;20090;-64
2023/10/17 14:37:30;;;;;;;12.63;9.35;;;;;;;19.63;nan;99176.97;5059120;28;20062;-65